Time;durP1;ratioP1;P1;durP2;ratioP2;P2;SDS_P1;SDS_P2;PMS_P1;PMS_P2;Temp;Humidity;BMP_temperature;BMP_pressure;BME280_temperature;BME280_humidity;BME280_pressure;Samples;Min_cycle;Max_cycle;Signal;HPM_P1;HPM_P2
2022/05/27 00:00:10;;;;;;;;;;;17.10;92.50;17.30;100321.00;;;;347142;28;86919;-85
2022/05/27 00:00:24;;;;;;;;;;;17.10;92.50;17.30;100320.00;;;;342887;28;90829;-86
2022/05/27 00:00:38;;;;;;;;;;;17.10;92.70;17.30;100321.00;;;;344363;28;86856;-85
2022/05/27 00:00:50;;;;;;;;;;;17.10;92.70;17.40;100322.00;;;;345564;28;88211;-86
2022/05/27 00:01:01;;;;;;;;;;;17.20;92.70;17.30;100326.00;;;;345077;28;86909;-86
2022/05/27 00:01:15;;;;;;;;;;;17.20;92.70;17.40;100314.00;;;;346145;28;88734;-85
2022/05/27 00:01:27;;;;;;;;;;;17.20;92.70;17.40;100318.00;;;;344434;28;86439;-86
2022/05/27 00:01:39;;;;;;;;;;;17.10;92.50;17.40;100320.00;;;;342220;28;86806;-86
2022/05/27 00:01:51;;;;;;;;;;;17.10;92.50;17.40;100319.00;;;;343093;28;86912;-86
2022/05/27 00:02:03;;;;;;;;;;;17.10;92.50;17.30;100322.00;;;;344689;28;87307;-86
2022/05/27 00:02:15;;;;;;;;;;;17.10;92.60;17.30;100318.00;;;;342904;28;86764;-85
2022/05/27 00:02:29;;;;;;;;;;;17.20;92.70;17.30;100331.00;;;;341495;28;87283;-86
2022/05/27 00:02:41;;;;;;;;;;;17.10;92.60;17.30;100326.00;;;;341701;28;86778;-86
2022/05/27 00:02:52;;;;;;;;;;;17.10;92.60;17.30;100321.00;;;;346125;28;89811;-85
2022/05/27 00:03:04;;;;;;;;;;;17.10;92.60;17.30;100318.00;;;;345488;28;88952;-86
2022/05/27 00:03:16;;;;;;;;;;;17.10;92.60;17.30;100325.00;;;;345789;28;88403;-86
2022/05/27 00:03:28;;;;;;;;;;;17.20;92.60;17.40;100318.00;;;;345761;28;86119;-85
2022/05/27 00:03:40;;;;;;;;;;;17.20;92.60;17.40;100330.00;;;;346031;28;87882;-86
2022/05/27 00:03:52;;;;;;;;;;;17.10;92.60;17.50;100322.00;;;;344546;28;87651;-86
2022/05/27 00:04:04;;;;;;;;;;;17.20;92.70;17.40;100322.00;;;;344402;28;88371;-86
2022/05/27 00:04:16;;;;;;;;;;;17.20;92.60;17.40;100313.00;;;;343061;28;86979;-86
2022/05/27 00:04:28;;;;;;;;;;;17.20;92.50;17.40;100320.00;;;;342911;28;87670;-86
2022/05/27 00:04:40;;;;;;;;;;;17.20;92.60;17.40;100321.00;;;;343022;28;88660;-86
2022/05/27 00:04:52;;;;;;;;;;;17.20;92.60;17.50;100324.00;;;;341851;28;88627;-85
2022/05/27 00:05:05;;;;;;;;;;;17.20;92.50;17.40;100323.00;;;;342942;28;86845;-86
2022/05/27 00:05:18;;;;;;;;;;;17.20;92.50;17.40;100320.00;;;;344532;28;88586;-85
2022/05/27 00:05:29;;;;;;;;;;;17.20;92.50;17.30;100322.00;;;;344102;28;86107;-86
2022/05/27 00:05:41;;;;;;;;;;;17.20;92.50;17.30;100315.00;;;;341889;28;87688;-86
2022/05/27 00:05:53;;;;;;;;;;;17.20;92.50;17.30;100321.00;;;;341561;28;87021;-86
2022/05/27 00:06:04;;;;;;;;;;;17.20;92.50;17.30;100322.00;;;;343154;28;88916;-86
2022/05/27 00:06:16;;;;;;;;;;;17.20;92.60;17.30;100322.00;;;;342915;28;87924;-86
2022/05/27 00:06:28;;;;;;;;;;;17.10;92.50;17.40;100314.00;;;;343113;28;89690;-86
2022/05/27 00:06:40;;;;;;;;;;;17.20;92.50;17.40;100321.00;;;;344265;28;86829;-86
2022/05/27 00:06:51;;;;;;;;;;;17.20;92.40;17.40;100318.00;;;;342558;28;90507;-85
2022/05/27 00:07:03;;;;;;;;;;;17.20;92.40;17.40;100320.00;;;;342502;28;89184;-85
2022/05/27 00:07:17;;;;;;;;;;;17.20;92.60;17.40;100320.00;;;;347289;28;89219;-86
2022/05/27 00:07:29;;;;;;;;;;;17.20;92.60;17.50;100315.00;;;;345810;28;85915;-86
2022/05/27 00:07:41;;;;;;;;;;;17.20;92.60;17.50;100317.00;;;;343439;28;90190;-86
2022/05/27 00:07:53;;;;;;;;;;;17.20;92.60;17.50;100317.00;;;;344246;28;87089;-85
2022/05/27 00:08:05;;;;;;;;;;;17.20;92.70;17.50;100322.00;;;;343344;28;90122;-86
2022/05/27 00:08:17;;;;;;;;;;;17.20;92.60;17.40;100316.00;;;;341954;28;87405;-85
2022/05/27 00:08:28;;;;;;;;;;;17.20;92.60;17.40;100317.00;;;;344483;28;90195;-85
2022/05/27 00:08:40;;;;;;;;;;;17.20;92.40;17.50;100317.00;;;;344699;28;86814;-86
2022/05/27 00:08:52;;;;;;;;;;;17.20;92.50;17.50;100320.00;;;;346440;28;87033;-85
2022/05/27 00:09:04;;;;;;;;;;;17.20;92.50;17.50;100318.00;;;;344420;28;87497;-86
2022/05/27 00:09:16;;;;;;;;;;;17.20;92.50;17.50;100319.00;;;;342124;28;90003;-86
2022/05/27 00:09:28;;;;;;;;;;;17.20;92.40;17.40;100324.00;;;;342127;28;87466;-86
2022/05/27 00:09:39;;;;;;;;;;;17.20;92.40;17.40;100318.00;;;;344986;28;88504;-85
2022/05/27 00:09:51;;;;;;;;;;;17.20;92.40;17.40;100320.00;;;;345568;28;86879;-86
2022/05/27 00:10:04;;;;;;;;;;;17.20;92.40;17.40;100319.00;;;;346132;28;92225;-85
2022/05/27 00:10:17;;;;;;;;;;;17.20;92.40;17.40;100319.00;;;;343331;28;86757;-85
2022/05/27 00:10:28;;;;;;;;;;;17.20;92.40;17.40;100326.00;;;;344595;28;87782;-85
2022/05/27 00:10:40;;;;;;;;;;;17.20;92.40;17.40;100312.00;;;;345863;28;87450;-85
2022/05/27 00:10:54;;;;;;;;;;;17.20;92.40;17.50;100320.00;;;;346311;28;87457;-86
2022/05/27 00:11:06;;;;;;;;;;;17.20;92.40;17.40;100320.00;;;;344304;28;86824;-86
2022/05/27 00:11:18;;;;;;;;;;;17.20;92.60;17.40;100322.00;;;;346020;28;88202;-85
2022/05/27 00:11:30;;;;;;;;;;;17.20;92.50;17.30;100323.00;;;;344225;28;88419;-86
2022/05/27 00:11:42;;;;;;;;;;;17.20;92.50;17.30;100321.00;;;;345988;28;87399;-85
2022/05/27 00:11:53;;;;;;;;;;;17.20;92.20;17.30;100324.00;;;;342974;28;87047;-85
2022/05/27 00:12:05;;;;;;;;;;;17.20;92.50;17.30;100322.00;;;;341701;28;88873;-86
2022/05/27 00:12:17;;;;;;;;;;;17.20;92.50;17.20;100316.00;;;;345706;28;86813;-85
2022/05/27 00:12:29;;;;;;;;;;;17.10;92.50;17.20;100319.00;;;;344412;28;88459;-86
2022/05/27 00:12:40;;;;;;;;;;;17.20;92.60;17.30;100325.00;;;;344143;28;87702;-86
2022/05/27 00:12:53;;;;;;;;;;;17.10;92.60;17.20;100320.00;;;;344957;28;89798;-86
2022/05/27 00:13:05;;;;;;;;;;;17.10;92.50;17.30;100334.00;;;;343395;28;86840;-86
2022/05/27 00:13:17;;;;;;;;;;;17.10;92.50;17.30;100325.00;;;;343295;28;90047;-85
2022/05/27 00:13:29;;;;;;;;;;;17.10;92.60;17.30;100322.00;;;;342719;28;90759;-86
2022/05/27 00:13:41;;;;;;;;;;;17.10;92.60;17.30;100330.00;;;;341872;28;90616;-86
2022/05/27 00:13:53;;;;;;;;;;;17.10;92.60;17.20;100320.00;;;;342858;28;85899;-86
2022/05/27 00:14:05;;;;;;;;;;;17.10;92.60;17.20;100322.00;;;;342296;28;88759;-86
2022/05/27 00:14:16;;;;;;;;;;;17.10;92.60;17.30;100318.00;;;;344291;28;87811;-86
2022/05/27 00:14:28;;;;;;;;;;;17.10;92.60;17.20;100318.00;;;;344582;28;88091;-85
2022/05/27 00:14:40;;;;;;;;;;;17.10;92.60;17.20;100322.00;;;;342907;28;86937;-86
2022/05/27 00:14:52;;;;;;;;;;;17.10;92.60;17.30;100323.00;;;;343335;28;89262;-86
2022/05/27 00:15:05;;;;;;;;;;;17.10;92.60;17.30;100333.00;;;;341573;28;87001;-86
2022/05/27 00:15:16;;;;;;;;;;;17.10;92.60;17.30;100323.00;;;;341815;28;90779;-85
2022/05/27 00:15:28;;;;;;;;;;;17.10;92.90;17.30;100322.00;;;;344647;28;86177;-86
2022/05/27 00:15:40;;;;;;;;;;;17.10;92.70;17.30;100322.00;;;;344498;28;90692;-86
2022/05/27 00:15:52;;;;;;;;;;;17.10;92.70;17.30;100319.00;;;;344613;28;88540;-85
2022/05/27 00:16:04;;;;;;;;;;;17.10;92.70;17.40;100322.00;;;;344569;28;91600;-86
2022/05/27 00:16:15;;;;;;;;;;;17.10;92.60;17.40;100325.00;;;;341622;28;87289;-85
2022/05/27 00:16:28;;;;;;;;;;;17.10;92.60;17.40;100320.00;;;;342899;28;90550;-86
2022/05/27 00:16:40;;;;;;;;;;;17.10;92.60;17.40;100325.00;;;;344180;28;89055;-85
2022/05/27 00:16:51;;;;;;;;;;;17.10;92.60;17.40;100319.00;;;;345928;28;88505;-85
2022/05/27 00:17:03;;;;;;;;;;;17.10;92.60;17.30;100325.00;;;;344186;28;87124;-86
2022/05/27 00:17:15;;;;;;;;;;;17.10;92.60;17.30;100322.00;;;;344500;28;91342;-85
2022/05/27 00:17:27;;;;;;;;;;;17.10;92.60;17.30;100320.00;;;;344325;28;86511;-85
2022/05/27 00:17:39;;;;;;;;;;;17.10;92.60;17.30;100319.00;;;;344635;28;91263;-86
2022/05/27 00:17:50;;;;;;;;;;;17.10;92.60;17.30;100320.00;;;;342949;28;87630;-86
2022/05/27 00:18:02;;;;;;;;;;;17.10;92.60;17.30;100314.00;;;;344524;28;88467;-85
2022/05/27 00:18:14;;;;;;;;;;;17.10;92.60;17.30;100317.00;;;;345671;28;87348;-86
2022/05/27 00:18:26;;;;;;;;;;;17.10;92.60;17.30;100321.00;;;;345899;28;90764;-85
2022/05/27 00:18:38;;;;;;;;;;;17.10;92.60;17.30;100322.00;;;;347107;28;87408;-85
2022/05/27 00:18:49;;;;;;;;;;;17.10;92.70;17.40;100316.00;;;;347816;27;88837;-86
2022/05/27 00:19:01;;;;;;;;;;;17.10;92.70;17.40;100317.00;;;;346366;28;86722;-86
2022/05/27 00:19:13;;;;;;;;;;;17.10;92.60;17.40;100318.00;;;;343257;28;88178;-85
2022/05/27 00:19:25;;;;;;;;;;;17.10;92.60;17.40;100316.00;;;;345930;28;86111;-85
2022/05/27 00:19:37;;;;;;;;;;;17.20;92.60;17.40;100320.00;;;;345893;28;87941;-86
2022/05/27 00:19:48;;;;;;;;;;;17.20;92.60;17.40;100319.00;;;;343557;28;87064;-86
2022/05/27 00:20:00;;;;;;;;;;;17.20;92.60;17.40;100318.00;;;;342097;28;87654;-85
2022/05/27 00:20:12;;;;;;;;;;;17.20;92.60;17.40;100314.00;;;;344469;28;87037;-85
2022/05/27 00:20:24;;;;;;;;;;;17.20;92.60;17.30;100315.00;;;;344840;28;88394;-85
2022/05/27 00:20:36;;;;;;;;;;;17.20;92.60;17.40;100313.00;;;;344868;28;87010;-85
2022/05/27 00:20:48;;;;;;;;;;;17.20;92.60;17.40;100307.00;;;;346262;28;87328;-85
2022/05/27 00:21:01;;;;;;;;;;;17.20;92.60;17.50;100312.00;;;;343192;28;88105;-84
2022/05/27 00:21:12;;;;;;;;;;;17.20;92.60;17.40;100314.00;;;;345922;28;89175;-87
2022/05/27 00:21:25;;;;;;;;;;;17.20;92.50;17.30;100316.00;;;;343001;28;86054;-85
2022/05/27 00:21:37;;;;;;;;;;;17.20;92.60;17.40;100314.00;;;;344504;28;91453;-85
2022/05/27 00:21:49;;;;;;;;;;;17.20;92.50;17.30;100307.00;;;;345371;28;86804;-86
2022/05/27 00:22:00;;;;;;;;;;;17.20;92.50;17.30;100315.00;;;;344159;28;91049;-86
2022/05/27 00:22:12;;;;;;;;;;;17.20;92.60;17.30;100314.00;;;;344211;28;88761;-86
2022/05/27 00:22:24;;;;;;;;;;;17.20;92.60;17.40;100313.00;;;;343183;28;90567;-85
2022/05/27 00:22:35;;;;;;;;;;;17.20;92.60;17.40;100317.00;;;;342966;28;86940;-85
2022/05/27 00:22:47;;;;;;;;;;;17.20;92.50;17.40;100305.00;;;;342921;28;90802;-85
2022/05/27 00:22:59;;;;;;;;;;;17.20;92.50;17.40;100296.00;;;;345265;28;88506;-85
2022/05/27 00:23:11;;;;;;;;;;;17.20;92.50;17.40;100315.00;;;;345787;28;91481;-85
2022/05/27 00:23:23;;;;;;;;;;;17.20;92.60;17.40;100309.00;;;;347108;28;86353;-86
2022/05/27 00:23:34;;;;;;;;;;;17.20;92.60;17.30;100312.00;;;;345721;28;88223;-85
2022/05/27 00:23:46;;;;;;;;;;;17.20;92.60;17.30;100310.00;;;;344264;28;87699;-85
2022/05/27 00:24:00;;;;;;;;;;;17.20;92.60;17.30;100313.00;;;;343218;28;87189;-86
2022/05/27 00:24:11;;;;;;;;;;;17.20;92.70;17.30;100315.00;;;;344081;28;87067;-85
2022/05/27 00:24:23;;;;;;;;;;;17.20;92.70;17.40;100310.00;;;;345919;28;88561;-85
2022/05/27 00:24:36;;;;;;;;;;;17.20;92.70;17.40;100308.00;;;;345491;28;87376;-85
2022/05/27 00:24:47;;;;;;;;;;;17.20;92.80;17.40;100309.00;;;;343042;28;88981;-86
2022/05/27 00:24:59;;;;;;;;;;;17.20;92.80;17.50;100305.00;;;;345207;28;87147;-86
2022/05/27 00:25:11;;;;;;;;;;;17.20;92.80;17.40;100309.00;;;;345425;28;90808;-86
2022/05/27 00:25:23;;;;;;;;;;;17.20;93.10;17.40;100324.00;;;;344153;28;88031;-86
2022/05/27 00:25:35;;;;;;;;;;;17.20;92.70;17.40;100311.00;;;;341697;28;90687;-85
2022/05/27 00:25:46;;;;;;;;;;;17.20;92.70;17.40;100309.00;;;;344183;28;88465;-86
2022/05/27 00:25:58;;;;;;;;;;;17.20;92.70;17.50;100298.00;;;;345380;28;91770;-85
2022/05/27 00:26:10;;;;;;;;;;;17.20;92.80;17.50;100302.00;;;;345946;28;86430;-86
2022/05/27 00:26:21;;;;;;;;;;;17.20;92.60;17.50;100311.00;;;;344679;28;87410;-86
2022/05/27 00:26:33;;;;;;;;;;;17.20;92.60;17.40;100307.00;;;;341519;28;87579;-86
2022/05/27 00:26:45;;;;;;;;;;;17.20;92.60;17.30;100314.00;;;;341762;28;88068;-85
2022/05/27 00:26:57;;;;;;;;;;;17.20;92.60;17.30;100317.00;;;;344139;28;88491;-85
2022/05/27 00:27:08;;;;;;;;;;;17.20;92.60;17.30;100309.00;;;;344451;28;88820;-86
2022/05/27 00:27:20;;;;;;;;;;;17.20;92.60;17.40;100311.00;;;;343025;28;86993;-86
2022/05/27 00:27:32;;;;;;;;;;;17.20;92.60;17.40;100304.00;;;;343138;28;90713;-86
2022/05/27 00:27:43;;;;;;;;;;;17.20;92.60;17.40;100308.00;;;;342920;28;87059;-85
2022/05/27 00:27:57;;;;;;;;;;;17.20;92.60;17.40;100305.00;;;;343673;28;89728;-86
2022/05/27 00:28:08;;;;;;;;;;;17.20;92.70;17.40;100312.00;;;;344123;28;88390;-86
2022/05/27 00:28:20;;;;;;;;;;;17.20;92.60;17.50;100305.00;;;;347250;28;88079;-84
2022/05/27 00:28:32;;;;;;;;;;;17.20;92.60;17.50;100308.00;;;;338645;28;87304;-86
2022/05/27 00:28:44;;;;;;;;;;;17.20;92.90;17.40;100299.00;;;;345925;28;88532;-86
2022/05/27 00:28:56;;;;;;;;;;;17.20;92.60;17.50;100309.00;;;;343605;28;86844;-86
2022/05/27 00:29:13;;;;;;;;;;;17.20;92.60;17.50;100310.00;;;;346842;28;88934;-86
2022/05/27 00:29:24;;;;;;;;;;;17.20;92.60;17.40;100307.00;;;;348398;27;87335;-86
2022/05/27 00:29:56;;;;;;;;;;;17.20;92.60;17.40;100313.00;;;;348726;27;89273;-86
2022/05/27 00:30:13;;;;;;;;;;;17.20;92.60;17.50;100313.00;;;;345699;28;87586;-86
2022/05/27 00:30:25;;;;;;;;;;;17.20;92.80;17.50;100309.00;;;;344431;28;87952;-86
2022/05/27 00:30:37;;;;;;;;;;;17.20;92.80;17.40;100312.00;;;;345776;28;86845;-86
2022/05/27 00:30:49;;;;;;;;;;;17.30;92.70;17.40;100306.00;;;;344314;28;89201;-86
2022/05/27 00:31:01;;;;;;;;;;;17.20;92.70;17.50;100314.00;;;;342702;28;87546;-86
2022/05/27 00:31:13;;;;;;;;;;;17.20;92.80;17.30;100308.00;;;;346924;28;90354;-86
2022/05/27 00:31:24;;;;;;;;;;;17.20;92.80;17.30;100314.00;;;;347033;28;86983;-85
2022/05/27 00:31:36;;;;;;;;;;;17.20;92.60;17.30;100311.00;;;;347304;28;89024;-85
2022/05/27 00:31:48;;;;;;;;;;;17.20;92.60;17.20;100314.00;;;;345516;28;88452;-85
2022/05/27 00:32:01;;;;;;;;;;;17.20;92.60;17.20;100322.00;;;;343094;28;90987;-86
2022/05/27 00:32:13;;;;;;;;;;;17.10;92.60;17.20;100316.00;;;;345544;28;89023;-86
2022/05/27 00:32:24;;;;;;;;;;;17.20;92.70;17.20;100309.00;;;;344461;28;89055;-86
2022/05/27 00:32:37;;;;;;;;;;;17.10;92.60;17.30;100315.00;;;;340089;28;87898;-86
2022/05/27 00:32:49;;;;;;;;;;;17.10;92.70;17.30;100317.00;;;;337555;28;89788;-86
2022/05/27 00:33:01;;;;;;;;;;;17.10;92.70;17.30;100321.00;;;;338437;28;87935;-85
2022/05/27 00:33:13;;;;;;;;;;;17.10;92.70;17.20;100310.00;;;;345977;28;87535;-86
2022/05/27 00:33:25;;;;;;;;;;;17.10;92.80;17.30;100317.00;;;;345593;28;88462;-85
2022/05/27 00:33:37;;;;;;;;;;;17.10;92.70;17.30;100313.00;;;;343257;28;88189;-86
2022/05/27 00:33:49;;;;;;;;;;;17.10;92.70;17.20;100309.00;;;;344222;28;86028;-85
2022/05/27 00:34:01;;;;;;;;;;;17.10;92.80;17.30;100316.00;;;;345074;28;90982;-84
2022/05/27 00:34:27;;;;;;;;;;;17.10;92.80;17.30;100319.00;;;;344507;28;86111;-86
2022/05/27 00:34:40;;;;;;;;;;;17.10;92.80;17.20;100323.00;;;;342923;28;88795;-85
2022/05/27 00:35:07;;;;;;;;;;;17.10;93.00;17.20;100311.00;;;;345023;28;87025;-85
2022/05/27 00:35:18;;;;;;;;;;;17.10;92.90;17.30;100305.00;;;;345688;28;87498;-86
2022/05/27 00:35:30;;;;;;;;;;;17.10;92.90;17.30;100316.00;;;;345301;28;88578;-86
2022/05/27 00:35:42;;;;;;;;;;;17.10;93.00;17.30;100314.00;;;;343033;28;91294;-85
2022/05/27 00:35:54;;;;;;;;;;;17.10;92.90;17.30;100311.00;;;;344248;28;86931;-86
2022/05/27 00:36:10;;;;;;;;;;;17.10;92.80;17.20;100306.00;;;;345911;28;87938;-86
2022/05/27 00:36:21;;;;;;;;;;;17.10;92.90;17.30;100319.00;;;;344330;28;86235;-86
2022/05/27 00:36:33;;;;;;;;;;;17.10;93.10;17.30;100312.00;;;;343155;28;85752;-86
2022/05/27 00:36:45;;;;;;;;;;;17.10;92.90;17.30;100315.00;;;;341531;28;88897;-86
2022/05/27 00:36:57;;;;;;;;;;;17.10;92.80;17.20;100312.00;;;;344576;28;87662;-86
2022/05/27 00:37:09;;;;;;;;;;;17.10;92.90;17.10;100308.00;;;;344378;28;88404;-85
2022/05/27 00:37:20;;;;;;;;;;;17.10;92.90;17.10;100301.00;;;;344669;28;88612;-86
2022/05/27 00:37:32;;;;;;;;;;;17.00;92.90;17.20;100310.00;;;;344161;28;87286;-86
2022/05/27 00:37:44;;;;;;;;;;;17.00;92.80;17.30;100306.00;;;;341687;28;88797;-86
2022/05/27 00:37:56;;;;;;;;;;;17.10;92.90;17.20;100304.00;;;;342088;28;87423;-86
2022/05/27 00:38:08;;;;;;;;;;;17.00;92.90;17.20;100302.00;;;;344562;28;88220;-86
2022/05/27 00:38:20;;;;;;;;;;;17.00;92.90;17.20;100299.00;;;;344336;28;85147;-86
2022/05/27 00:38:31;;;;;;;;;;;17.10;93.00;17.20;100297.00;;;;343059;28;90567;-86
2022/05/27 00:38:43;;;;;;;;;;;17.00;93.00;17.20;100308.00;;;;342732;28;88846;-86
2022/05/27 00:38:55;;;;;;;;;;;17.00;93.00;17.20;100305.00;;;;344426;28;91477;-86
2022/05/27 00:39:07;;;;;;;;;;;17.00;92.90;17.30;100303.00;;;;345197;28;88603;-85
2022/05/27 00:39:18;;;;;;;;;;;17.10;93.00;17.20;100305.00;;;;344441;28;90471;-86
2022/05/27 00:39:30;;;;;;;;;;;17.10;93.10;17.20;100302.00;;;;344200;28;87024;-86
2022/05/27 00:39:42;;;;;;;;;;;17.00;93.00;17.20;100303.00;;;;343178;28;87036;-86
2022/05/27 00:39:55;;;;;;;;;;;17.00;93.00;17.30;100304.00;;;;342413;28;87630;-85
2022/05/27 00:40:08;;;;;;;;;;;17.00;93.00;17.30;100310.00;;;;345633;28;88603;-85
2022/05/27 00:40:20;;;;;;;;;;;17.10;93.00;17.20;100302.00;;;;344242;28;86080;-85
2022/05/27 00:40:40;;;;;;;;;;;17.00;92.90;17.20;100302.00;;;;343145;28;87705;-85
2022/05/27 00:40:52;;;;;;;;;;;17.00;93.00;17.30;100295.00;;;;345526;28;87022;-85
2022/05/27 00:41:04;;;;;;;;;;;17.10;93.00;17.20;100302.00;;;;345851;28;87837;-85
2022/05/27 00:41:16;;;;;;;;;;;17.00;93.00;17.10;100298.00;;;;344159;28;87018;-86
2022/05/27 00:41:28;;;;;;;;;;;17.00;93.00;17.10;100300.00;;;;341647;28;86063;-86
2022/05/27 00:41:42;;;;;;;;;;;17.00;93.00;17.10;100297.00;;;;345496;28;86725;-85
2022/05/27 00:41:54;;;;;;;;;;;17.00;93.00;17.10;100296.00;;;;345830;28;91511;-85
2022/05/27 00:42:06;;;;;;;;;;;17.00;93.00;17.00;100295.00;;;;344120;28;86897;-86
2022/05/27 00:42:18;;;;;;;;;;;17.00;93.10;17.10;100302.00;;;;343126;28;91467;-85
2022/05/27 00:42:29;;;;;;;;;;;17.00;93.10;17.00;100301.00;;;;345581;28;86261;-85
2022/05/27 00:42:42;;;;;;;;;;;16.90;93.10;17.00;100298.00;;;;345923;28;90236;-86
2022/05/27 00:42:54;;;;;;;;;;;16.90;93.10;17.10;100304.00;;;;343780;28;87114;-85
2022/05/27 00:43:06;;;;;;;;;;;16.90;93.10;17.10;100299.00;;;;344811;28;88598;-86
2022/05/27 00:43:18;;;;;;;;;;;16.90;93.30;17.00;100298.00;;;;345716;28;88399;-86
2022/05/27 00:43:29;;;;;;;;;;;17.00;93.30;17.10;100296.00;;;;345834;28;88185;-86
2022/05/27 00:43:42;;;;;;;;;;;17.00;93.20;17.20;100295.00;;;;344301;28;86836;-85
2022/05/27 00:43:53;;;;;;;;;;;17.00;93.20;17.20;100297.00;;;;344370;28;91077;-85
2022/05/27 00:44:05;;;;;;;;;;;16.90;93.10;17.20;100290.00;;;;342758;28;86824;-85
2022/05/27 00:44:17;;;;;;;;;;;16.90;93.10;17.20;100295.00;;;;341675;28;88115;-86
2022/05/27 00:44:28;;;;;;;;;;;17.00;93.20;17.20;100298.00;;;;342901;28;86262;-86
2022/05/27 00:44:40;;;;;;;;;;;16.90;93.20;17.20;100296.00;;;;342985;28;88218;-85
2022/05/27 00:44:52;;;;;;;;;;;16.90;93.10;17.20;100300.00;;;;342944;28;86858;-86
2022/05/27 00:45:04;;;;;;;;;;;17.00;93.20;17.30;100293.00;;;;344510;28;88463;-86
2022/05/27 00:45:21;;;;;;;;;;;17.00;93.10;17.30;100304.00;;;;344353;28;86826;-86
2022/05/27 00:45:34;;;;;;;;;;;17.00;93.20;17.20;100294.00;;;;347261;28;88438;-86
2022/05/27 00:46:00;;;;;;;;;;;17.00;93.30;17.30;100293.00;;;;345732;28;86088;-86
2022/05/27 00:46:26;;;;;;;;;;;17.00;93.30;17.20;100290.00;;;;340084;28;88139;-86
2022/05/27 00:46:39;;;;;;;;;;;17.00;93.30;17.30;100297.00;;;;341597;28;87051;-86
2022/05/27 00:46:51;;;;;;;;;;;17.00;93.30;17.20;100297.00;;;;339039;28;88083;-86
2022/05/27 00:47:06;;;;;;;;;;;17.00;93.30;17.20;100293.00;;;;340056;28;86049;-85
2022/05/27 00:47:19;;;;;;;;;;;17.00;93.20;17.20;100298.00;;;;340356;28;89692;-86
2022/05/27 00:47:33;;;;;;;;;;;17.00;93.20;17.20;100297.00;;;;345336;28;88578;-85
2022/05/27 00:47:45;;;;;;;;;;;17.00;93.30;17.20;100298.00;;;;344345;28;90731;-86
2022/05/27 00:47:57;;;;;;;;;;;17.00;93.30;17.20;100298.00;;;;342809;28;87445;-86
2022/05/27 00:48:17;;;;;;;;;;;17.00;93.30;17.20;100298.00;;;;344597;28;90768;-85
2022/05/27 00:48:29;;;;;;;;;;;17.00;93.20;17.20;100297.00;;;;342818;28;86834;-85
2022/05/27 00:48:40;;;;;;;;;;;17.00;93.20;17.20;100302.00;;;;344217;28;91531;-86
2022/05/27 00:48:53;;;;;;;;;;;17.00;93.20;17.20;100300.00;;;;343708;28;87507;-85
2022/05/27 00:49:10;;;;;;;;;;;17.00;93.10;17.20;100292.00;;;;344268;28;87307;-86
2022/05/27 00:49:26;;;;;;;;;;;17.00;93.10;17.20;100291.00;;;;345598;28;87423;-86
2022/05/27 00:49:53;;;;;;;;;;;17.00;93.10;17.20;100294.00;;;;345960;28;89106;-86
2022/05/27 00:50:08;;;;;;;;;;;17.00;93.20;17.20;100295.00;;;;344250;28;86164;-85
2022/05/27 00:50:24;;;;;;;;;;;17.00;93.20;17.10;100293.00;;;;343181;28;88671;-86
2022/05/27 00:50:36;;;;;;;;;;;17.00;93.20;17.10;100294.00;;;;344177;28;88312;-86
2022/05/27 00:50:48;;;;;;;;;;;17.00;93.20;17.10;100288.00;;;;343060;28;90603;-86
2022/05/27 00:51:08;;;;;;;;;;;17.00;93.20;17.10;100285.00;;;;343829;28;87258;-86
2022/05/27 00:51:22;;;;;;;;;;;17.00;93.20;17.00;100298.00;;;;347307;28;87625;-85
2022/05/27 00:51:43;;;;;;;;;;;16.90;93.20;17.00;100296.00;;;;345588;28;86888;-86
2022/05/27 00:52:00;;;;;;;;;;;16.90;93.30;17.10;100291.00;;;;347254;27;88342;-86
2022/05/27 00:52:12;;;;;;;;;;;17.00;93.30;17.10;100293.00;;;;341259;28;86301;-86
2022/05/27 00:52:27;;;;;;;;;;;17.00;93.40;17.10;100291.00;;;;345143;28;86663;-86
2022/05/27 00:52:39;;;;;;;;;;;16.90;93.40;17.10;100291.00;;;;344308;28;86876;-86
2022/05/27 00:52:51;;;;;;;;;;;16.90;93.30;17.10;100294.00;;;;343122;28;88160;-86
2022/05/27 00:53:03;;;;;;;;;;;16.90;93.30;17.10;100288.00;;;;341068;28;87554;-86
2022/05/27 00:53:22;;;;;;;;;;;16.90;93.30;17.20;100296.00;;;;342990;28;91100;-85
2022/05/27 00:53:37;;;;;;;;;;;16.90;93.30;17.20;100297.00;;;;344363;28;86777;-85
2022/05/27 00:53:56;;;;;;;;;;;16.90;93.30;17.20;100292.00;;;;342935;28;91843;-85
2022/05/27 00:54:10;;;;;;;;;;;16.90;93.30;17.20;100295.00;;;;345564;28;86909;-86
2022/05/27 00:54:23;;;;;;;;;;;17.00;93.30;17.10;100299.00;;;;345858;28;87899;-86
2022/05/27 00:54:35;;;;;;;;;;;17.00;93.40;17.20;100289.00;;;;342598;28;88486;-85
2022/05/27 00:54:47;;;;;;;;;;;17.00;93.30;17.20;100289.00;;;;344434;28;90800;-86
2022/05/27 00:55:00;;;;;;;;;;;17.00;93.30;17.20;100298.00;;;;346007;28;87270;-85
2022/05/27 00:55:29;;;;;;;;;;;17.00;93.30;17.10;100297.00;;;;344110;28;90420;-85
2022/05/27 00:55:43;;;;;;;;;;;16.90;93.30;17.00;100292.00;;;;345604;28;86863;-86
2022/05/27 00:55:56;;;;;;;;;;;17.00;93.30;17.00;100292.00;;;;346305;28;91996;-86
2022/05/27 00:56:08;;;;;;;;;;;17.00;93.30;17.00;100291.00;;;;346866;28;87102;-86
2022/05/27 00:56:22;;;;;;;;;;;17.00;93.40;17.10;100292.00;;;;344434;28;90038;-86
2022/05/27 00:56:34;;;;;;;;;;;16.90;93.30;17.00;100294.00;;;;344223;28;86749;-85
2022/05/27 00:56:50;;;;;;;;;;;16.90;93.30;17.10;100285.00;;;;347158;28;91395;-85
2022/05/27 00:57:05;;;;;;;;;;;16.90;93.30;17.20;100284.00;;;;342942;28;87808;-85
2022/05/27 00:57:42;;;;;;;;;;;17.00;93.40;17.10;100296.00;;;;344641;28;87597;-85
2022/05/27 00:58:12;;;;;;;;;;;16.90;93.30;17.10;100288.00;;;;345316;28;87163;-86
2022/05/27 00:58:29;;;;;;;;;;;16.90;93.30;17.10;100287.00;;;;345717;28;89152;-86
2022/05/27 00:58:45;;;;;;;;;;;16.90;93.40;17.20;100292.00;;;;345577;28;88703;-86
2022/05/27 00:59:02;;;;;;;;;;;17.00;93.40;17.20;100285.00;;;;344503;28;88044;-85
2022/05/27 00:59:28;;;;;;;;;;;16.90;93.40;17.10;100288.00;;;;345573;28;87025;-86
2022/05/27 00:59:56;;;;;;;;;;;16.90;93.50;17.20;100289.00;;;;338910;28;88982;-86
2022/05/27 01:00:12;;;;;;;;;;;16.90;93.40;17.30;100292.00;;;;339966;28;88324;-86
2022/05/27 01:00:24;;;;;;;;;;;17.00;93.40;17.30;100290.00;;;;337654;28;88462;-85
2022/05/27 01:00:36;;;;;;;;;;;17.00;93.40;17.30;100285.00;;;;340047;28;88044;-85
2022/05/27 01:00:48;;;;;;;;;;;17.00;93.40;17.30;100288.00;;;;345690;28;87698;-86
2022/05/27 01:01:00;;;;;;;;;;;17.00;93.40;17.30;100288.00;;;;345120;28;89494;-85
2022/05/27 01:01:12;;;;;;;;;;;17.00;93.40;17.20;100283.00;;;;345629;28;89822;-86
2022/05/27 01:01:24;;;;;;;;;;;17.00;93.30;17.20;100284.00;;;;344234;28;86110;-86
2022/05/27 01:01:35;;;;;;;;;;;17.00;93.20;17.10;100290.00;;;;347272;28;90982;-86
2022/05/27 01:01:47;;;;;;;;;;;17.00;93.30;17.00;100289.00;;;;344207;28;87032;-86
2022/05/27 01:01:59;;;;;;;;;;;17.00;93.30;17.00;100290.00;;;;344179;28;85994;-85
2022/05/27 01:02:11;;;;;;;;;;;17.00;93.30;17.00;100286.00;;;;342878;28;86661;-86
2022/05/27 01:02:23;;;;;;;;;;;17.00;93.30;17.00;100281.00;;;;344430;28;89899;-85
2022/05/27 01:02:35;;;;;;;;;;;16.90;93.30;17.00;100284.00;;;;344134;28;86903;-86
2022/05/27 01:02:47;;;;;;;;;;;16.90;93.30;17.10;100285.00;;;;344484;28;87858;-86
2022/05/27 01:02:59;;;;;;;;;;;16.90;93.40;17.00;100289.00;;;;344204;28;87477;-86
2022/05/27 01:03:12;;;;;;;;;;;16.90;93.40;17.00;100284.00;;;;344404;28;89883;-86
2022/05/27 01:03:25;;;;;;;;;;;16.90;93.40;17.00;100286.00;;;;344249;28;87395;-86
2022/05/27 01:03:37;;;;;;;;;;;16.90;93.40;17.00;100292.00;;;;344622;28;88472;-86
2022/05/27 01:03:48;;;;;;;;;;;16.90;93.40;17.10;100288.00;;;;345246;28;88855;-86